N517RG MMAN-MMQT
Flight info
| Callsign | N517RG |
|---|---|
| Flight time | 1h 18m |
| Altitude | 28000 |
| Route | MTY2E MTY UJ45 QET |
| Aircraft | PC12/L-SDFGRWY/S |
Departure
| Time | 2026-04-23 23:38 |
|---|---|
| Airport | Del Norte International Airport (MMAN) |
Arrival
| Time | 2026-04-24 00:56 |
|---|---|
| Airport | Querétaro Intercontinental Airport (MMQT) |
| Time | Latitude | Longitude | Altitude | Speed | Heading |
|---|---|---|---|---|---|
| 2026-04-23 23:37 | 25.56420 | -100.17088 | 14170 ft | 194 kts | 197° |
| 2026-04-23 23:38 | 25.55117 | -100.17394 | 14684 ft | 191 kts | 198° |
| 2026-04-23 23:38 | 25.53807 | -100.17706 | 15056 ft | 195 kts | 198° |
| 2026-04-23 23:38 | 25.52476 | -100.18022 | 15421 ft | 196 kts | 198° |
| 2026-04-23 23:38 | 25.51134 | -100.18338 | 15820 ft | 198 kts | 198° |
| 2026-04-23 23:39 | 25.49780 | -100.18657 | 16207 ft | 200 kts | 198° |
| 2026-04-23 23:39 | 25.48412 | -100.18979 | 16563 ft | 202 kts | 198° |
| 2026-04-23 23:39 | 25.47034 | -100.19304 | 16930 ft | 203 kts | 198° |
| 2026-04-23 23:39 | 25.45646 | -100.19631 | 17212 ft | 205 kts | 198° |
| 2026-04-23 23:40 | 25.44248 | -100.19961 | 17507 ft | 206 kts | 199° |
| 2026-04-23 23:40 | 25.42840 | -100.20292 | 17789 ft | 208 kts | 198° |
| 2026-04-23 23:40 | 25.41424 | -100.20625 | 18127 ft | 208 kts | 198° |
| 2026-04-23 23:40 | 25.40002 | -100.20959 | 18390 ft | 210 kts | 199° |
| 2026-04-23 23:41 | 25.38565 | -100.21298 | 18633 ft | 212 kts | 199° |
| 2026-04-23 23:41 | 25.37116 | -100.21637 | 18908 ft | 213 kts | 199° |
| 2026-04-23 23:41 | 25.36195 | -100.21853 | 19091 ft | 214 kts | 199° |
| 2026-04-23 23:42 | 25.35816 | -100.21942 | 19160 ft | 215 kts | 199° |
| 2026-04-23 23:42 | 25.34367 | -100.22283 | 19392 ft | 217 kts | 200° |
| 2026-04-23 23:42 | 25.32891 | -100.22631 | 19699 ft | 217 kts | 200° |
| 2026-04-23 23:43 | 25.31412 | -100.22979 | 19986 ft | 219 kts | 200° |
| 2026-04-23 23:43 | 25.29909 | -100.23332 | 20170 ft | 221 kts | 200° |
| 2026-04-23 23:43 | 25.28409 | -100.23683 | 20512 ft | 220 kts | 200° |
| 2026-04-23 23:43 | 25.26907 | -100.24036 | 20792 ft | 222 kts | 200° |
| 2026-04-23 23:44 | 25.25390 | -100.24393 | 21084 ft | 223 kts | 201° |
| 2026-04-23 23:44 | 25.23872 | -100.24747 | 21306 ft | 221 kts | 200° |
| 2026-04-23 23:44 | 25.22356 | -100.25103 | 21570 ft | 224 kts | 199° |
| 2026-04-23 23:44 | 25.20816 | -100.25466 | 21819 ft | 229 kts | 200° |
| 2026-04-23 23:45 | 25.19263 | -100.25828 | 22090 ft | 227 kts | 201° |
| 2026-04-23 23:45 | 25.17719 | -100.26188 | 22310 ft | 227 kts | 201° |
| 2026-04-23 23:45 | 25.16296 | -100.26523 | 22438 ft | 230 kts | 201° |
| 2026-04-23 23:46 | 25.15542 | -100.26700 | 22548 ft | 229 kts | 201° |
| 2026-04-23 23:46 | 25.13974 | -100.27069 | 22754 ft | 232 kts | 201° |
| 2026-04-23 23:47 | 25.12390 | -100.27440 | 22951 ft | 233 kts | 201° |
| 2026-04-23 23:47 | 25.10800 | -100.27811 | 23196 ft | 234 kts | 201° |
| 2026-04-23 23:47 | 25.09206 | -100.28184 | 23439 ft | 235 kts | 202° |
| 2026-04-23 23:47 | 25.07604 | -100.28559 | 23651 ft | 235 kts | 201° |
| 2026-04-23 23:48 | 25.06000 | -100.28934 | 23851 ft | 236 kts | 201° |
| 2026-04-23 23:48 | 25.04385 | -100.29312 | 24068 ft | 238 kts | 201° |
| 2026-04-23 23:48 | 25.02763 | -100.29691 | 24282 ft | 239 kts | 201° |
| 2026-04-23 23:48 | 25.01134 | -100.30072 | 24487 ft | 240 kts | 201° |
| 2026-04-23 23:49 | 24.97848 | -100.30840 | 24852 ft | 242 kts | 201° |
| 2026-04-23 23:49 | 24.96201 | -100.31223 | 25061 ft | 242 kts | 201° |
| 2026-04-23 23:49 | 24.95107 | -100.31479 | 25161 ft | 243 kts | 201° |
| 2026-04-23 23:50 | 24.92904 | -100.31993 | 25412 ft | 244 kts | 201° |
| 2026-04-23 23:50 | 24.91241 | -100.32381 | 25634 ft | 245 kts | 201° |
| 2026-04-23 23:50 | 24.89572 | -100.32771 | 25828 ft | 246 kts | 201° |
| 2026-04-23 23:50 | 24.87897 | -100.33162 | 26022 ft | 247 kts | 201° |
| 2026-04-23 23:51 | 24.86213 | -100.33554 | 26215 ft | 248 kts | 201° |
| 2026-04-23 23:51 | 24.84527 | -100.33947 | 26391 ft | 248 kts | 201° |
| 2026-04-23 23:51 | 24.82834 | -100.34341 | 26574 ft | 249 kts | 201° |
| 2026-04-23 23:51 | 24.81136 | -100.34737 | 26760 ft | 250 kts | 201° |
| 2026-04-23 23:52 | 24.79432 | -100.35134 | 26927 ft | 251 kts | 201° |
| 2026-04-23 23:52 | 24.77722 | -100.35532 | 27105 ft | 252 kts | 201° |
| 2026-04-23 23:52 | 24.76006 | -100.35931 | 27284 ft | 252 kts | 201° |
| 2026-04-23 23:52 | 24.74285 | -100.36332 | 27442 ft | 253 kts | 201° |
| 2026-04-23 23:53 | 24.72554 | -100.36734 | 27624 ft | 255 kts | 201° |
| 2026-04-23 23:53 | 24.70818 | -100.37138 | 27828 ft | 255 kts | 201° |
| 2026-04-23 23:53 | 24.69059 | -100.37549 | 27836 ft | 262 kts | 201° |
| 2026-04-23 23:53 | 24.67252 | -100.37972 | 27835 ft | 268 kts | 201° |
| 2026-04-23 23:54 | 24.65410 | -100.38398 | 27834 ft | 272 kts | 201° |
| 2026-04-23 23:54 | 24.63555 | -100.38826 | 27825 ft | 273 kts | 200° |
| 2026-04-23 23:54 | 24.61692 | -100.39259 | 27821 ft | 274 kts | 201° |
| 2026-04-23 23:54 | 24.59823 | -100.39693 | 27825 ft | 275 kts | 201° |
| 2026-04-23 23:55 | 24.57956 | -100.40126 | 27818 ft | 275 kts | 200° |
| 2026-04-23 23:55 | 24.56081 | -100.40561 | 27813 ft | 276 kts | 200° |
| 2026-04-23 23:55 | 24.54205 | -100.40996 | 27810 ft | 276 kts | 200° |
| 2026-04-23 23:55 | 24.52328 | -100.41431 | 27810 ft | 276 kts | 200° |
| 2026-04-23 23:56 | 24.50450 | -100.41866 | 27806 ft | 276 kts | 200° |
| 2026-04-23 23:56 | 24.49205 | -100.42154 | 27805 ft | 276 kts | 200° |
| 2026-04-23 23:56 | 24.47329 | -100.42589 | 27802 ft | 275 kts | 200° |
| 2026-04-23 23:56 | 24.44847 | -100.43163 | 27798 ft | 275 kts | 200° |
| 2026-04-23 23:57 | 24.42975 | -100.43595 | 27793 ft | 275 kts | 200° |
| 2026-04-23 23:57 | 24.41108 | -100.44026 | 27801 ft | 273 kts | 200° |
| 2026-04-23 23:57 | 24.39244 | -100.44458 | 27801 ft | 274 kts | 200° |
| 2026-04-23 23:57 | 24.37380 | -100.44890 | 27793 ft | 275 kts | 200° |
| 2026-04-23 23:58 | 24.36115 | -100.45182 | 27794 ft | 275 kts | 200° |
| 2026-04-23 23:58 | 24.34246 | -100.45614 | 27791 ft | 274 kts | 200° |
| 2026-04-23 23:58 | 24.32379 | -100.46045 | 27789 ft | 274 kts | 200° |
| 2026-04-23 23:58 | 24.30512 | -100.46476 | 27785 ft | 274 kts | 200° |
| 2026-04-23 23:59 | 24.28645 | -100.46907 | 27786 ft | 274 kts | 200° |
| 2026-04-23 23:59 | 24.26775 | -100.47340 | 27787 ft | 275 kts | 200° |
| 2026-04-23 23:59 | 24.24900 | -100.47772 | 27780 ft | 275 kts | 200° |
| 2026-04-23 23:59 | 24.23024 | -100.48205 | 27784 ft | 275 kts | 200° |
| 2026-04-24 00:00 | 24.21149 | -100.48637 | 27781 ft | 275 kts | 200° |
| 2026-04-24 00:00 | 24.19278 | -100.49068 | 27781 ft | 275 kts | 200° |
| 2026-04-24 00:00 | 24.17434 | -100.49493 | 27783 ft | 274 kts | 200° |
| 2026-04-24 00:00 | 24.15566 | -100.49924 | 27783 ft | 274 kts | 200° |
| 2026-04-24 00:01 | 24.13698 | -100.50354 | 27778 ft | 274 kts | 200° |
| 2026-04-24 00:01 | 24.11830 | -100.50784 | 27778 ft | 275 kts | 200° |
| 2026-04-24 00:01 | 24.09959 | -100.51216 | 27779 ft | 275 kts | 200° |
| 2026-04-24 00:01 | 24.08091 | -100.51645 | 27777 ft | 275 kts | 200° |
| 2026-04-24 00:02 | 24.06220 | -100.52075 | 27775 ft | 275 kts | 200° |
| 2026-04-24 00:02 | 24.04349 | -100.52506 | 27775 ft | 275 kts | 200° |
| 2026-04-24 00:02 | 24.02480 | -100.52936 | 27777 ft | 274 kts | 200° |
| 2026-04-24 00:02 | 24.00613 | -100.53365 | 27779 ft | 274 kts | 200° |
| 2026-04-24 00:03 | 23.98749 | -100.53793 | 27780 ft | 274 kts | 200° |
| 2026-04-24 00:03 | 23.96883 | -100.54222 | 27779 ft | 274 kts | 200° |
| 2026-04-24 00:03 | 23.95013 | -100.54652 | 27779 ft | 275 kts | 200° |
| 2026-04-24 00:03 | 23.93142 | -100.55081 | 27779 ft | 275 kts | 200° |
| 2026-04-24 00:04 | 23.91271 | -100.55511 | 27775 ft | 275 kts | 200° |
| 2026-04-24 00:04 | 23.89401 | -100.55940 | 27783 ft | 274 kts | 200° |
| 2026-04-24 00:04 | 23.87557 | -100.56363 | 27781 ft | 274 kts | 200° |
| 2026-04-24 00:04 | 23.85666 | -100.56796 | 27777 ft | 274 kts | 199° |
| 2026-04-24 00:05 | 23.83800 | -100.57224 | 27788 ft | 274 kts | 199° |
| 2026-04-24 00:05 | 23.81936 | -100.57651 | 27784 ft | 274 kts | 199° |
| 2026-04-24 00:05 | 23.80072 | -100.58079 | 27790 ft | 274 kts | 199° |
| 2026-04-24 00:05 | 23.78208 | -100.58506 | 27782 ft | 274 kts | 199° |
| 2026-04-24 00:06 | 23.76347 | -100.58932 | 27785 ft | 274 kts | 199° |
| 2026-04-24 00:06 | 23.74479 | -100.59360 | 27786 ft | 274 kts | 199° |
| 2026-04-24 00:06 | 23.72611 | -100.59787 | 27784 ft | 274 kts | 199° |
| 2026-04-24 00:06 | 23.70742 | -100.60215 | 27785 ft | 274 kts | 199° |
| 2026-04-24 00:07 | 23.68873 | -100.60642 | 27778 ft | 274 kts | 199° |
| 2026-04-24 00:07 | 23.67005 | -100.61069 | 27774 ft | 274 kts | 199° |
| 2026-04-24 00:07 | 23.65137 | -100.61496 | 27778 ft | 274 kts | 199° |
| 2026-04-24 00:07 | 23.63270 | -100.61923 | 27777 ft | 274 kts | 199° |
| 2026-04-24 00:08 | 23.61407 | -100.62349 | 27777 ft | 274 kts | 199° |
| 2026-04-24 00:08 | 23.59538 | -100.62776 | 27774 ft | 275 kts | 199° |
| 2026-04-24 00:08 | 23.57668 | -100.63203 | 27770 ft | 274 kts | 199° |
| 2026-04-24 00:08 | 23.55798 | -100.63629 | 27774 ft | 275 kts | 199° |
| 2026-04-24 00:09 | 23.53928 | -100.64056 | 27766 ft | 275 kts | 199° |
| 2026-04-24 00:09 | 23.52058 | -100.64483 | 27766 ft | 274 kts | 199° |
| 2026-04-24 00:09 | 23.50215 | -100.64903 | 27764 ft | 274 kts | 199° |
| 2026-04-24 00:09 | 23.48349 | -100.65328 | 27770 ft | 274 kts | 199° |
| 2026-04-24 00:10 | 23.46484 | -100.65754 | 27771 ft | 274 kts | 199° |
| 2026-04-24 00:10 | 23.44617 | -100.66179 | 27770 ft | 274 kts | 199° |
| 2026-04-24 00:10 | 23.42747 | -100.66605 | 27772 ft | 275 kts | 199° |
| 2026-04-24 00:10 | 23.40880 | -100.67030 | 27770 ft | 275 kts | 199° |
| 2026-04-24 00:11 | 23.39010 | -100.67456 | 27770 ft | 274 kts | 199° |
| 2026-04-24 00:11 | 23.37143 | -100.67881 | 27773 ft | 274 kts | 199° |
| 2026-04-24 00:11 | 23.35277 | -100.68305 | 27774 ft | 274 kts | 199° |
| 2026-04-24 00:11 | 23.33411 | -100.68730 | 27771 ft | 274 kts | 199° |
| 2026-04-24 00:12 | 23.31547 | -100.69154 | 27768 ft | 273 kts | 199° |
| 2026-04-24 00:12 | 23.29686 | -100.69577 | 27772 ft | 273 kts | 199° |
| 2026-04-24 00:12 | 23.27819 | -100.70002 | 27774 ft | 275 kts | 199° |
| 2026-04-24 00:12 | 23.25948 | -100.70427 | 27770 ft | 275 kts | 199° |
| 2026-04-24 00:13 | 23.24077 | -100.70852 | 27777 ft | 275 kts | 199° |
| 2026-04-24 00:13 | 23.22201 | -100.71278 | 27771 ft | 275 kts | 199° |
| 2026-04-24 00:13 | 23.20328 | -100.71703 | 27772 ft | 276 kts | 199° |
| 2026-04-24 00:13 | 23.18443 | -100.72131 | 27771 ft | 276 kts | 199° |
| 2026-04-24 00:14 | 23.16565 | -100.72557 | 27770 ft | 276 kts | 199° |
| 2026-04-24 00:14 | 23.14684 | -100.72983 | 27772 ft | 276 kts | 198° |
| 2026-04-24 00:14 | 23.12800 | -100.73410 | 27772 ft | 277 kts | 199° |
| 2026-04-24 00:14 | 23.10916 | -100.73837 | 27771 ft | 277 kts | 199° |
| 2026-04-24 00:15 | 23.09029 | -100.74265 | 27768 ft | 277 kts | 199° |
| 2026-04-24 00:15 | 23.07141 | -100.74693 | 27769 ft | 277 kts | 199° |
| 2026-04-24 00:15 | 23.05251 | -100.75121 | 27769 ft | 278 kts | 198° |
| 2026-04-24 00:15 | 23.03385 | -100.75544 | 27771 ft | 278 kts | 198° |
| 2026-04-24 00:16 | 23.01493 | -100.75972 | 27769 ft | 278 kts | 198° |
| 2026-04-24 00:16 | 22.99601 | -100.76400 | 27770 ft | 278 kts | 198° |
| 2026-04-24 00:16 | 22.97708 | -100.76828 | 27770 ft | 278 kts | 198° |
| 2026-04-24 00:16 | 22.95817 | -100.77256 | 27771 ft | 278 kts | 198° |
| 2026-04-24 00:17 | 22.93930 | -100.77683 | 27774 ft | 278 kts | 198° |
| 2026-04-24 00:17 | 22.92038 | -100.78110 | 27774 ft | 278 kts | 198° |
| 2026-04-24 00:17 | 22.90146 | -100.78538 | 27772 ft | 278 kts | 198° |
| 2026-04-24 00:17 | 22.88256 | -100.78964 | 27775 ft | 277 kts | 198° |
| 2026-04-24 00:18 | 22.86369 | -100.79391 | 27774 ft | 277 kts | 198° |
| 2026-04-24 00:18 | 22.84482 | -100.79817 | 27774 ft | 277 kts | 198° |
| 2026-04-24 00:18 | 22.82594 | -100.80243 | 27772 ft | 277 kts | 198° |
| 2026-04-24 00:18 | 22.80709 | -100.80668 | 27771 ft | 277 kts | 198° |
| 2026-04-24 00:19 | 22.78823 | -100.81094 | 27770 ft | 277 kts | 198° |
| 2026-04-24 00:19 | 22.76939 | -100.81519 | 27772 ft | 277 kts | 198° |
| 2026-04-24 00:19 | 22.75053 | -100.81944 | 27773 ft | 277 kts | 198° |
| 2026-04-24 00:19 | 22.73166 | -100.82370 | 27773 ft | 277 kts | 198° |
| 2026-04-24 00:20 | 22.71280 | -100.82795 | 27772 ft | 277 kts | 198° |
| 2026-04-24 00:20 | 22.69397 | -100.83219 | 27770 ft | 277 kts | 198° |
| 2026-04-24 00:20 | 22.67511 | -100.83644 | 27772 ft | 277 kts | 198° |
| 2026-04-24 00:20 | 22.65623 | -100.84069 | 27774 ft | 277 kts | 198° |
| 2026-04-24 00:21 | 22.63735 | -100.84494 | 27774 ft | 277 kts | 198° |
| 2026-04-24 00:21 | 22.61847 | -100.84918 | 27776 ft | 277 kts | 198° |
| 2026-04-24 00:21 | 22.59960 | -100.85343 | 27793 ft | 277 kts | 198° |
| 2026-04-24 00:21 | 22.58073 | -100.85767 | 27819 ft | 277 kts | 198° |
| 2026-04-24 00:22 | 22.56260 | -100.86175 | 27843 ft | 277 kts | 198° |
| 2026-04-24 00:22 | 22.54371 | -100.86600 | 27865 ft | 277 kts | 198° |
| 2026-04-24 00:22 | 22.52481 | -100.87024 | 27886 ft | 278 kts | 198° |
| 2026-04-24 00:22 | 22.50589 | -100.87449 | 27909 ft | 278 kts | 198° |
| 2026-04-24 00:23 | 22.48698 | -100.87874 | 27938 ft | 278 kts | 198° |
| 2026-04-24 00:23 | 22.46809 | -100.88298 | 27959 ft | 277 kts | 198° |
| 2026-04-24 00:23 | 22.44921 | -100.88722 | 27986 ft | 277 kts | 198° |
| 2026-04-24 00:23 | 22.43033 | -100.89146 | 28008 ft | 277 kts | 198° |
| 2026-04-24 00:24 | 22.41145 | -100.89569 | 28031 ft | 277 kts | 198° |
| 2026-04-24 00:24 | 22.39257 | -100.89993 | 28050 ft | 277 kts | 198° |
| 2026-04-24 00:24 | 22.37371 | -100.90415 | 28076 ft | 277 kts | 198° |
| 2026-04-24 00:24 | 22.35483 | -100.90839 | 28099 ft | 277 kts | 198° |
| 2026-04-24 00:25 | 22.33596 | -100.91262 | 28105 ft | 277 kts | 198° |
| 2026-04-24 00:25 | 22.31733 | -100.91679 | 28103 ft | 277 kts | 198° |
| 2026-04-24 00:25 | 22.29846 | -100.92102 | 28102 ft | 277 kts | 198° |
| 2026-04-24 00:25 | 22.27957 | -100.92525 | 28103 ft | 277 kts | 198° |
| 2026-04-24 00:26 | 22.26042 | -100.92815 | 28104 ft | 283 kts | 184° |
| 2026-04-24 00:26 | 22.24104 | -100.92358 | 28113 ft | 290 kts | 162° |
| 2026-04-24 00:26 | 22.22240 | -100.91518 | 28119 ft | 291 kts | 160° |
| 2026-04-24 00:26 | 22.20384 | -100.90645 | 28117 ft | 291 kts | 160° |
| 2026-04-24 00:27 | 22.18518 | -100.89791 | 28117 ft | 291 kts | 161° |
| 2026-04-24 00:27 | 22.16644 | -100.88949 | 28102 ft | 292 kts | 161° |
| 2026-04-24 00:27 | 22.14769 | -100.88100 | 28079 ft | 292 kts | 161° |
| 2026-04-24 00:27 | 22.12894 | -100.87247 | 28059 ft | 292 kts | 161° |
| 2026-04-24 00:28 | 22.11020 | -100.86394 | 28038 ft | 292 kts | 161° |
| 2026-04-24 00:28 | 22.09144 | -100.85544 | 28018 ft | 292 kts | 161° |
| 2026-04-24 00:28 | 22.07269 | -100.84693 | 27995 ft | 292 kts | 161° |
| 2026-04-24 00:28 | 22.05393 | -100.83842 | 27973 ft | 293 kts | 161° |
| 2026-04-24 00:29 | 22.03516 | -100.82991 | 27949 ft | 293 kts | 161° |
| 2026-04-24 00:29 | 22.01643 | -100.82142 | 27928 ft | 293 kts | 161° |
| 2026-04-24 00:29 | 21.99766 | -100.81291 | 27907 ft | 293 kts | 161° |
| 2026-04-24 00:29 | 21.98497 | -100.80716 | 27893 ft | 293 kts | 161° |
| 2026-04-24 00:30 | 21.96011 | -100.79590 | 27863 ft | 293 kts | 161° |
| 2026-04-24 00:30 | 21.94131 | -100.78738 | 27841 ft | 293 kts | 161° |
| 2026-04-24 00:30 | 21.92252 | -100.77888 | 27829 ft | 293 kts | 161° |
| 2026-04-24 00:30 | 21.90371 | -100.77044 | 27831 ft | 293 kts | 161° |
| 2026-04-24 00:31 | 21.88491 | -100.76198 | 27827 ft | 293 kts | 161° |
| 2026-04-24 00:31 | 21.86615 | -100.75347 | 27826 ft | 292 kts | 161° |
| 2026-04-24 00:31 | 21.84740 | -100.74497 | 27828 ft | 292 kts | 161° |
| 2026-04-24 00:31 | 21.82864 | -100.73649 | 27825 ft | 293 kts | 161° |
| 2026-04-24 00:32 | 21.80993 | -100.72804 | 27823 ft | 292 kts | 161° |
| 2026-04-24 00:32 | 21.79120 | -100.71958 | 27831 ft | 292 kts | 161° |
| 2026-04-24 00:32 | 21.77247 | -100.71111 | 27827 ft | 292 kts | 161° |
| 2026-04-24 00:32 | 21.75373 | -100.70265 | 27826 ft | 292 kts | 161° |
| 2026-04-24 00:33 | 21.73499 | -100.69419 | 27823 ft | 292 kts | 161° |
| 2026-04-24 00:33 | 21.71630 | -100.68574 | 27826 ft | 291 kts | 161° |
| 2026-04-24 00:33 | 21.69760 | -100.67731 | 27826 ft | 292 kts | 161° |
| 2026-04-24 00:33 | 21.67888 | -100.66886 | 27827 ft | 292 kts | 161° |
| 2026-04-24 00:34 | 21.66015 | -100.66042 | 27828 ft | 292 kts | 160° |
| 2026-04-24 00:34 | 21.64143 | -100.65197 | 27831 ft | 292 kts | 160° |
| 2026-04-24 00:34 | 21.62271 | -100.64354 | 27830 ft | 292 kts | 161° |
| 2026-04-24 00:34 | 21.60394 | -100.63508 | 27830 ft | 292 kts | 160° |
| 2026-04-24 00:35 | 21.58518 | -100.62663 | 27827 ft | 292 kts | 161° |
| 2026-04-24 00:35 | 21.56626 | -100.61811 | 27583 ft | 301 kts | 160° |
| 2026-04-24 00:35 | 21.55330 | -100.61230 | 27324 ft | 307 kts | 160° |
| 2026-04-24 00:35 | 21.52664 | -100.60031 | 26800 ft | 312 kts | 160° |
| 2026-04-24 00:36 | 21.50669 | -100.59131 | 26414 ft | 310 kts | 160° |
| 2026-04-24 00:36 | 21.48690 | -100.58240 | 26035 ft | 308 kts | 160° |
| 2026-04-24 00:36 | 21.46722 | -100.57356 | 25661 ft | 305 kts | 160° |
| 2026-04-24 00:36 | 21.44777 | -100.56481 | 25292 ft | 302 kts | 160° |
| 2026-04-24 00:37 | 21.42834 | -100.55608 | 24888 ft | 302 kts | 160° |
| 2026-04-24 00:37 | 21.40906 | -100.54742 | 24509 ft | 300 kts | 160° |
| 2026-04-24 00:37 | 21.38983 | -100.53878 | 24133 ft | 299 kts | 160° |
| 2026-04-24 00:37 | 21.37070 | -100.53019 | 23767 ft | 298 kts | 160° |
| 2026-04-24 00:38 | 21.35165 | -100.52164 | 23390 ft | 296 kts | 160° |
| 2026-04-24 00:38 | 21.33269 | -100.51313 | 22948 ft | 294 kts | 160° |
| 2026-04-24 00:38 | 21.31381 | -100.50466 | 22511 ft | 294 kts | 160° |
| 2026-04-24 00:38 | 21.29490 | -100.49617 | 22085 ft | 296 kts | 160° |
| 2026-04-24 00:39 | 21.27570 | -100.48756 | 21669 ft | 302 kts | 160° |
| 2026-04-24 00:39 | 21.25617 | -100.47881 | 21245 ft | 306 kts | 160° |
| 2026-04-24 00:39 | 21.23645 | -100.46997 | 20841 ft | 308 kts | 159° |
| 2026-04-24 00:39 | 21.21661 | -100.46108 | 20438 ft | 310 kts | 159° |
| 2026-04-24 00:40 | 21.19674 | -100.45218 | 20041 ft | 310 kts | 159° |
| 2026-04-24 00:40 | 21.17710 | -100.44339 | 19654 ft | 310 kts | 159° |
| 2026-04-24 00:40 | 21.15721 | -100.43449 | 19232 ft | 310 kts | 159° |
| 2026-04-24 00:40 | 21.15580 | -100.43386 | 19207 ft | 310 kts | 159° |
| 2026-04-24 00:41 | 21.13744 | -100.42564 | 18807 ft | 310 kts | 158° |
| 2026-04-24 00:41 | 21.11758 | -100.41676 | 18390 ft | 309 kts | 158° |
| 2026-04-24 00:41 | 21.09779 | -100.40790 | 17941 ft | 308 kts | 158° |
| 2026-04-24 00:41 | 21.07809 | -100.39910 | 17452 ft | 305 kts | 158° |
| 2026-04-24 00:42 | 21.05860 | -100.39037 | 16979 ft | 302 kts | 158° |
| 2026-04-24 00:42 | 21.03926 | -100.38174 | 16507 ft | 301 kts | 159° |
| 2026-04-24 00:42 | 21.01990 | -100.37309 | 16047 ft | 302 kts | 159° |
| 2026-04-24 00:42 | 21.00051 | -100.36443 | 15589 ft | 302 kts | 159° |
| 2026-04-24 00:43 | 20.98118 | -100.35579 | 15145 ft | 302 kts | 159° |
| 2026-04-24 00:43 | 20.96835 | -100.35005 | 14854 ft | 301 kts | 159° |
| 2026-04-24 00:43 | 20.94285 | -100.33864 | 14418 ft | 294 kts | 159° |
| 2026-04-24 00:43 | 20.92410 | -100.33026 | 14118 ft | 291 kts | 159° |
| 2026-04-24 00:44 | 20.90545 | -100.32194 | 13827 ft | 291 kts | 159° |
| 2026-04-24 00:44 | 20.88667 | -100.31358 | 13513 ft | 293 kts | 160° |
| 2026-04-24 00:44 | 20.87422 | -100.30803 | 13361 ft | 292 kts | 159° |
| 2026-04-24 00:44 | 20.85552 | -100.29966 | 13163 ft | 291 kts | 159° |
| 2026-04-24 00:45 | 20.83683 | -100.29131 | 12969 ft | 291 kts | 160° |
| 2026-04-24 00:45 | 20.81934 | -100.28082 | 12757 ft | 290 kts | 139° |
| 2026-04-24 00:45 | 20.80747 | -100.26352 | 12565 ft | 290 kts | 118° |
| 2026-04-24 00:45 | 20.80005 | -100.24364 | 12360 ft | 288 kts | 104° |
| 2026-04-24 00:46 | 20.79868 | -100.22262 | 12139 ft | 284 kts | 81° |
| 2026-04-24 00:46 | 20.80464 | -100.20286 | 11921 ft | 277 kts | 66° |
| 2026-04-24 00:46 | 20.80918 | -100.18282 | 11691 ft | 280 kts | 81° |
| 2026-04-24 00:46 | 20.81005 | -100.16209 | 11475 ft | 279 kts | 91° |
| 2026-04-24 00:47 | 20.80795 | -100.14145 | 11255 ft | 280 kts | 100° |
| 2026-04-24 00:47 | 20.80332 | -100.12134 | 11036 ft | 278 kts | 108° |
| 2026-04-24 00:47 | 20.79651 | -100.10205 | 10886 ft | 277 kts | 114° |
| 2026-04-24 00:47 | 20.78786 | -100.08385 | 10871 ft | 273 kts | 121° |
| 2026-04-24 00:48 | 20.77758 | -100.06685 | 10870 ft | 271 kts | 127° |
| 2026-04-24 00:48 | 20.76590 | -100.05122 | 10866 ft | 268 kts | 133° |
| 2026-04-24 00:48 | 20.75282 | -100.03683 | 10683 ft | 272 kts | 139° |
| 2026-04-24 00:48 | 20.73836 | -100.02376 | 10497 ft | 271 kts | 145° |
| 2026-04-24 00:49 | 20.72297 | -100.01236 | 10314 ft | 268 kts | 151° |
| 2026-04-24 00:49 | 20.70690 | -100.00271 | 10127 ft | 263 kts | 156° |
| 2026-04-24 00:49 | 20.69025 | -99.99477 | 9934 ft | 261 kts | 162° |
| 2026-04-24 00:49 | 20.67327 | -99.98859 | 9731 ft | 257 kts | 167° |
| 2026-04-24 00:50 | 20.65601 | -99.98410 | 9548 ft | 255 kts | 172° |
| 2026-04-24 00:50 | 20.63848 | -99.98127 | 9345 ft | 252 kts | 178° |
| 2026-04-24 00:50 | 20.62116 | -99.98013 | 9151 ft | 247 kts | 182° |
| 2026-04-24 00:50 | 20.60459 | -99.98139 | 8941 ft | 237 kts | 199° |
| 2026-04-24 00:51 | 20.58989 | -99.98911 | 8760 ft | 231 kts | 221° |
| 2026-04-24 00:51 | 20.58060 | -100.00202 | 8695 ft | 218 kts | 245° |
| 2026-04-24 00:51 | 20.57877 | -100.01752 | 8708 ft | 215 kts | 282° |
| 2026-04-24 00:51 | 20.58483 | -100.03189 | 8717 ft | 210 kts | 295° |
| 2026-04-24 00:52 | 20.58993 | -100.04581 | 8737 ft | 190 kts | 284° |
| 2026-04-24 00:52 | 20.59277 | -100.05881 | 8513 ft | 175 kts | 281° |
| 2026-04-24 00:52 | 20.59512 | -100.07123 | 8249 ft | 168 kts | 279° |
| 2026-04-24 00:52 | 20.59734 | -100.08338 | 8064 ft | 163 kts | 279° |
| 2026-04-24 00:53 | 20.59943 | -100.09480 | 7912 ft | 154 kts | 278° |
| 2026-04-24 00:53 | 20.60137 | -100.10545 | 7769 ft | 138 kts | 279° |
| 2026-04-24 00:53 | 20.60315 | -100.11497 | 7608 ft | 120 kts | 281° |
| 2026-04-24 00:53 | 20.60517 | -100.12259 | 7569 ft | 101 kts | 282° |
| 2026-04-24 00:54 | 20.60704 | -100.12975 | 7461 ft | 99 kts | 281° |
| 2026-04-24 00:54 | 20.60847 | -100.13711 | 7316 ft | 100 kts | 275° |
| 2026-04-24 00:54 | 20.60981 | -100.14448 | 7093 ft | 103 kts | 274° |
| 2026-04-24 00:54 | 20.61120 | -100.15183 | 6978 ft | 99 kts | 273° |
| 2026-04-24 00:55 | 20.61242 | -100.15907 | 6830 ft | 99 kts | 280° |
| 2026-04-24 00:55 | 20.61383 | -100.16634 | 6665 ft | 101 kts | 280° |
| 2026-04-24 00:55 | 20.61513 | -100.17344 | 6552 ft | 90 kts | 278° |
| 2026-04-24 00:55 | 20.61616 | -100.17904 | 6542 ft | 64 kts | 281° |
| 2026-04-24 00:56 | 20.61676 | -100.18229 | 6543 ft | 33 kts | 278° |
| 2026-04-24 00:56 | 20.61687 | -100.18291 | 6542 ft | 32 kts | 281° |
| 2026-04-24 00:56 | 20.61710 | -100.18421 | 6544 ft | 26 kts | 281° |
| 2026-04-24 00:57 | 20.61779 | -100.18586 | 6541 ft | 21 kts | 315° |
| 2026-04-24 00:57 | 20.61876 | -100.18669 | 6541 ft | 14 kts | 340° |
| 2026-04-24 00:57 | 20.62086 | -100.18684 | 6538 ft | 13 kts | 317° |
| 2026-04-24 00:58 | 20.62108 | -100.18783 | 6538 ft | 14 kts | 280° |
| 2026-04-24 00:58 | 20.62126 | -100.18877 | 6539 ft | 12 kts | 282° |
| 2026-04-24 00:58 | 20.62151 | -100.18943 | 6539 ft | 9 kts | 350° |
| 2026-04-24 00:58 | 20.62217 | -100.18933 | 6539 ft | 7 kts | 11° |
| 2026-04-24 00:59 | 20.62243 | -100.18941 | 6539 ft | 0 kts | 279° |